sensor_id;sensor_type;location;lat;lon;timestamp;temperature;humidity
10133;DHT22;5106;50.926;7.080;2022-12-29T00:01:54;10.50;84.10
10133;DHT22;5106;50.926;7.080;2022-12-29T00:04:21;10.60;84.00
10133;DHT22;5106;50.926;7.080;2022-12-29T00:06:46;10.60;84.00
10133;DHT22;5106;50.926;7.080;2022-12-29T00:09:13;10.60;84.00
10133;DHT22;5106;50.926;7.080;2022-12-29T00:11:39;10.70;84.20
10133;DHT22;5106;50.926;7.080;2022-12-29T00:14:05;10.70;84.20
10133;DHT22;5106;50.926;7.080;2022-12-29T00:16:49;10.60;84.20
10133;DHT22;5106;50.926;7.080;2022-12-29T00:19:15;10.60;84.30
10133;DHT22;5106;50.926;7.080;2022-12-29T00:21:59;10.60;84.40
10133;DHT22;5106;50.926;7.080;2022-12-29T00:24:46;10.60;84.40
10133;DHT22;5106;50.926;7.080;2022-12-29T00:27:31;10.60;84.30
10133;DHT22;5106;50.926;7.080;2022-12-29T00:30:18;10.60;84.30
10133;DHT22;5106;50.926;7.080;2022-12-29T00:33:17;10.60;84.30
10133;DHT22;5106;50.926;7.080;2022-12-29T00:36:06;10.70;84.20
10133;DHT22;5106;50.926;7.080;2022-12-29T00:38:36;10.70;84.20
10133;DHT22;5106;50.926;7.080;2022-12-29T00:41:22;10.80;84.10
10133;DHT22;5106;50.926;7.080;2022-12-29T00:44:08;10.80;84.00
10133;DHT22;5106;50.926;7.080;2022-12-29T00:46:40;10.80;84.00
10133;DHT22;5106;50.926;7.080;2022-12-29T00:49:07;10.80;84.00
10133;DHT22;5106;50.926;7.080;2022-12-29T00:51:52;10.90;83.90
10133;DHT22;5106;50.926;7.080;2022-12-29T00:54:19;10.90;83.80
10133;DHT22;5106;50.926;7.080;2022-12-29T00:56:52;10.90;83.80
10133;DHT22;5106;50.926;7.080;2022-12-29T00:59:18;11.00;83.80
10133;DHT22;5106;50.926;7.080;2022-12-29T01:01:44;11.00;83.70
10133;DHT22;5106;50.926;7.080;2022-12-29T01:04:10;11.10;83.70
10133;DHT22;5106;50.926;7.080;2022-12-29T01:06:38;11.10;83.50
10133;DHT22;5106;50.926;7.080;2022-12-29T01:09:05;11.10;83.50
10133;DHT22;5106;50.926;7.080;2022-12-29T01:11:49;11.10;83.50
10133;DHT22;5106;50.926;7.080;2022-12-29T01:14:15;11.20;83.60
10133;DHT22;5106;50.926;7.080;2022-12-29T01:16:41;11.20;83.60
10133;DHT22;5106;50.926;7.080;2022-12-29T01:19:06;11.20;83.70
10133;DHT22;5106;50.926;7.080;2022-12-29T01:21:32;11.10;83.70
10133;DHT22;5106;50.926;7.080;2022-12-29T01:23:58;11.10;83.70
10133;DHT22;5106;50.926;7.080;2022-12-29T01:26:24;11.10;83.70
10133;DHT22;5106;50.926;7.080;2022-12-29T01:28:49;11.10;83.70
10133;DHT22;5106;50.926;7.080;2022-12-29T01:31:15;11.10;83.60
10133;DHT22;5106;50.926;7.080;2022-12-29T01:33:41;11.10;83.70
10133;DHT22;5106;50.926;7.080;2022-12-29T01:36:10;11.10;83.70
10133;DHT22;5106;50.926;7.080;2022-12-29T01:38:37;11.10;83.60
10133;DHT22;5106;50.926;7.080;2022-12-29T01:41:04;11.10;83.50
10133;DHT22;5106;50.926;7.080;2022-12-29T01:51:37;11.20;83.20
10133;DHT22;5106;50.926;7.080;2022-12-29T01:54:11;11.20;83.20
10133;DHT22;5106;50.926;7.080;2022-12-29T01:56:38;11.20;83.00
10133;DHT22;5106;50.926;7.080;2022-12-29T01:59:08;11.20;82.90
10133;DHT22;5106;50.926;7.080;2022-12-29T02:01:36;11.30;82.60
10133;DHT22;5106;50.926;7.080;2022-12-29T02:04:02;11.30;81.60
10133;DHT22;5106;50.926;7.080;2022-12-29T02:06:33;11.40;81.30
10133;DHT22;5106;50.926;7.080;2022-12-29T02:08:59;11.40;81.40
10133;DHT22;5106;50.926;7.080;2022-12-29T02:11:26;11.40;81.30
10133;DHT22;5106;50.926;7.080;2022-12-29T02:13:53;11.40;80.90
10133;DHT22;5106;50.926;7.080;2022-12-29T02:24:58;11.60;79.30
10133;DHT22;5106;50.926;7.080;2022-12-29T02:36:07;11.60;80.00
10133;DHT22;5106;50.926;7.080;2022-12-29T02:39:33;11.60;79.40
10133;DHT22;5106;50.926;7.080;2022-12-29T02:41:46;11.70;79.40
10133;DHT22;5106;50.926;7.080;2022-12-29T02:47:29;11.70;79.60
10133;DHT22;5106;50.926;7.080;2022-12-29T02:49:54;11.70;79.50
10133;DHT22;5106;50.926;7.080;2022-12-29T02:52:50;11.60;79.90
10133;DHT22;5106;50.926;7.080;2022-12-29T02:55:17;11.60;79.80
10133;DHT22;5106;50.926;7.080;2022-12-29T02:57:43;11.60;80.10
10133;DHT22;5106;50.926;7.080;2022-12-29T03:00:17;11.50;80.10
10133;DHT22;5106;50.926;7.080;2022-12-29T03:06:45;11.50;80.20
10133;DHT22;5106;50.926;7.080;2022-12-29T03:09:01;11.50;80.40
10133;DHT22;5106;50.926;7.080;2022-12-29T03:11:34;11.50;80.60
10133;DHT22;5106;50.926;7.080;2022-12-29T03:17:36;11.50;81.00
10133;DHT22;5106;50.926;7.080;2022-12-29T03:20:08;11.50;81.10
10133;DHT22;5106;50.926;7.080;2022-12-29T03:22:38;11.50;81.20
10133;DHT22;5106;50.926;7.080;2022-12-29T03:27:39;11.50;81.40
10133;DHT22;5106;50.926;7.080;2022-12-29T03:30:07;11.50;81.30
10133;DHT22;5106;50.926;7.080;2022-12-29T03:32:38;11.50;81.30
10133;DHT22;5106;50.926;7.080;2022-12-29T03:35:10;11.50;81.40
10133;DHT22;5106;50.926;7.080;2022-12-29T03:37:41;11.50;81.40
10133;DHT22;5106;50.926;7.080;2022-12-29T03:40:07;11.50;81.60
10133;DHT22;5106;50.926;7.080;2022-12-29T03:42:35;11.50;81.60
10133;DHT22;5106;50.926;7.080;2022-12-29T03:45:01;11.50;81.50
10133;DHT22;5106;50.926;7.080;2022-12-29T03:47:29;11.50;81.50
10133;DHT22;5106;50.926;7.080;2022-12-29T03:49:55;11.60;81.50
10133;DHT22;5106;50.926;7.080;2022-12-29T03:52:20;11.60;81.70
10133;DHT22;5106;50.926;7.080;2022-12-29T03:54:46;11.60;81.60
10133;DHT22;5106;50.926;7.080;2022-12-29T03:57:12;11.60;81.70
10133;DHT22;5106;50.926;7.080;2022-12-29T03:59:37;11.60;81.70
10133;DHT22;5106;50.926;7.080;2022-12-29T04:02:03;11.60;81.70
10133;DHT22;5106;50.926;7.080;2022-12-29T04:04:29;11.50;81.80
10133;DHT22;5106;50.926;7.080;2022-12-29T04:06:54;11.50;81.80
10133;DHT22;5106;50.926;7.080;2022-12-29T04:09:20;11.50;81.70
10133;DHT22;5106;50.926;7.080;2022-12-29T04:11:45;11.40;81.70
10133;DHT22;5106;50.926;7.080;2022-12-29T04:14:11;11.40;81.80
10133;DHT22;5106;50.926;7.080;2022-12-29T04:16:37;11.40;82.00
10133;DHT22;5106;50.926;7.080;2022-12-29T04:19:07;11.30;81.90
10133;DHT22;5106;50.926;7.080;2022-12-29T04:21:33;11.40;82.00
10133;DHT22;5106;50.926;7.080;2022-12-29T04:23:59;11.40;81.80
10133;DHT22;5106;50.926;7.080;2022-12-29T04:26:25;11.40;81.80
10133;DHT22;5106;50.926;7.080;2022-12-29T04:28:50;11.40;81.60
10133;DHT22;5106;50.926;7.080;2022-12-29T04:31:16;11.40;81.50
10133;DHT22;5106;50.926;7.080;2022-12-29T04:33:42;11.40;81.60
10133;DHT22;5106;50.926;7.080;2022-12-29T04:36:07;11.40;81.60
10133;DHT22;5106;50.926;7.080;2022-12-29T04:38:33;11.30;81.50
10133;DHT22;5106;50.926;7.080;2022-12-29T04:41:00;11.40;81.60
10133;DHT22;5106;50.926;7.080;2022-12-29T04:43:26;11.30;81.50
10133;DHT22;5106;50.926;7.080;2022-12-29T04:45:51;11.30;81.40
10133;DHT22;5106;50.926;7.080;2022-12-29T04:48:17;11.30;81.30
10133;DHT22;5106;50.926;7.080;2022-12-29T04:50:43;11.30;81.50
10133;DHT22;5106;50.926;7.080;2022-12-29T04:53:09;11.30;81.30
10133;DHT22;5106;50.926;7.080;2022-12-29T04:55:35;11.30;81.10
10133;DHT22;5106;50.926;7.080;2022-12-29T04:58:00;11.40;81.30
10133;DHT22;5106;50.926;7.080;2022-12-29T05:00:26;11.40;80.90
10133;DHT22;5106;50.926;7.080;2022-12-29T05:02:51;11.50;80.60
10133;DHT22;5106;50.926;7.080;2022-12-29T05:05:17;11.50;80.50
10133;DHT22;5106;50.926;7.080;2022-12-29T05:07:43;11.50;80.20
10133;DHT22;5106;50.926;7.080;2022-12-29T05:10:09;11.50;80.00
10133;DHT22;5106;50.926;7.080;2022-12-29T05:12:36;11.50;79.80
10133;DHT22;5106;50.926;7.080;2022-12-29T05:15:03;11.50;79.60
10133;DHT22;5106;50.926;7.080;2022-12-29T05:17:29;11.60;78.70
10133;DHT22;5106;50.926;7.080;2022-12-29T05:19:55;11.60;78.80
10133;DHT22;5106;50.926;7.080;2022-12-29T05:22:21;11.60;78.90
10133;DHT22;5106;50.926;7.080;2022-12-29T05:24:46;11.60;78.90
10133;DHT22;5106;50.926;7.080;2022-12-29T05:27:12;11.60;78.80
10133;DHT22;5106;50.926;7.080;2022-12-29T05:29:38;11.60;78.70
10133;DHT22;5106;50.926;7.080;2022-12-29T05:32:04;11.60;78.80
10133;DHT22;5106;50.926;7.080;2022-12-29T05:34:29;11.50;79.10
10133;DHT22;5106;50.926;7.080;2022-12-29T05:36:55;11.50;79.20
10133;DHT22;5106;50.926;7.080;2022-12-29T05:39:21;11.50;79.40
10133;DHT22;5106;50.926;7.080;2022-12-29T05:41:46;11.50;78.90
10133;DHT22;5106;50.926;7.080;2022-12-29T05:44:12;11.50;78.80
10133;DHT22;5106;50.926;7.080;2022-12-29T05:46:38;11.50;78.90
10133;DHT22;5106;50.926;7.080;2022-12-29T05:49:04;11.50;79.00
10133;DHT22;5106;50.926;7.080;2022-12-29T05:51:29;11.50;79.10
10133;DHT22;5106;50.926;7.080;2022-12-29T05:53:55;11.70;78.10
10133;DHT22;5106;50.926;7.080;2022-12-29T05:56:21;11.80;77.90
10133;DHT22;5106;50.926;7.080;2022-12-29T05:58:46;11.80;78.20
10133;DHT22;5106;50.926;7.080;2022-12-29T06:01:12;11.80;78.60
10133;DHT22;5106;50.926;7.080;2022-12-29T06:03:37;11.70;78.80
10133;DHT22;5106;50.926;7.080;2022-12-29T06:06:03;11.70;79.00
10133;DHT22;5106;50.926;7.080;2022-12-29T06:08:29;11.70;79.30
10133;DHT22;5106;50.926;7.080;2022-12-29T06:10:54;11.70;79.10
10133;DHT22;5106;50.926;7.080;2022-12-29T06:13:20;11.70;79.30
10133;DHT22;5106;50.926;7.080;2022-12-29T06:15:48;11.70;79.20
10133;DHT22;5106;50.926;7.080;2022-12-29T06:18:14;11.70;79.10
10133;DHT22;5106;50.926;7.080;2022-12-29T06:20:39;11.70;79.00
10133;DHT22;5106;50.926;7.080;2022-12-29T06:23:05;11.70;78.70
10133;DHT22;5106;50.926;7.080;2022-12-29T06:25:31;11.80;78.30
10133;DHT22;5106;50.926;7.080;2022-12-29T06:28:00;11.80;78.60
10133;DHT22;5106;50.926;7.080;2022-12-29T06:30:26;11.80;78.80
10133;DHT22;5106;50.926;7.080;2022-12-29T06:32:51;11.80;78.80
10133;DHT22;5106;50.926;7.080;2022-12-29T06:35:17;11.80;79.10
10133;DHT22;5106;50.926;7.080;2022-12-29T06:37:43;11.80;79.40
10133;DHT22;5106;50.926;7.080;2022-12-29T06:40:09;11.80;79.80
10133;DHT22;5106;50.926;7.080;2022-12-29T06:42:35;11.80;80.00
10133;DHT22;5106;50.926;7.080;2022-12-29T06:45:01;11.80;80.10
10133;DHT22;5106;50.926;7.080;2022-12-29T06:47:27;11.70;80.40
10133;DHT22;5106;50.926;7.080;2022-12-29T06:49:52;11.70;80.40
10133;DHT22;5106;50.926;7.080;2022-12-29T06:52:18;11.70;80.00
10133;DHT22;5106;50.926;7.080;2022-12-29T06:54:44;11.70;80.10
10133;DHT22;5106;50.926;7.080;2022-12-29T06:57:10;11.70;80.00
10133;DHT22;5106;50.926;7.080;2022-12-29T06:59:35;11.70;79.90
10133;DHT22;5106;50.926;7.080;2022-12-29T07:02:01;11.70;79.40
10133;DHT22;5106;50.926;7.080;2022-12-29T07:04:29;11.70;78.50
10133;DHT22;5106;50.926;7.080;2022-12-29T07:06:55;11.70;77.90
10133;DHT22;5106;50.926;7.080;2022-12-29T07:09:21;11.80;77.80
10133;DHT22;5106;50.926;7.080;2022-12-29T07:11:46;11.80;76.50
10133;DHT22;5106;50.926;7.080;2022-12-29T07:14:12;11.90;76.10
10133;DHT22;5106;50.926;7.080;2022-12-29T07:16:38;11.90;76.00
10133;DHT22;5106;50.926;7.080;2022-12-29T07:19:04;11.90;75.90
10133;DHT22;5106;50.926;7.080;2022-12-29T07:21:30;11.90;76.40
10133;DHT22;5106;50.926;7.080;2022-12-29T07:23:56;11.90;76.90
10133;DHT22;5106;50.926;7.080;2022-12-29T07:26:22;11.90;76.20
10133;DHT22;5106;50.926;7.080;2022-12-29T07:28:48;11.90;76.10
10133;DHT22;5106;50.926;7.080;2022-12-29T07:31:21;11.90;76.20
10133;DHT22;5106;50.926;7.080;2022-12-29T07:33:47;11.90;75.30
10133;DHT22;5106;50.926;7.080;2022-12-29T07:36:14;11.90;75.10
10133;DHT22;5106;50.926;7.080;2022-12-29T07:38:41;11.90;75.20
10133;DHT22;5106;50.926;7.080;2022-12-29T07:41:06;11.90;75.10
10133;DHT22;5106;50.926;7.080;2022-12-29T07:43:32;11.80;75.90
10133;DHT22;5106;50.926;7.080;2022-12-29T07:45:58;11.80;75.60
10133;DHT22;5106;50.926;7.080;2022-12-29T07:48:24;11.80;75.40
10133;DHT22;5106;50.926;7.080;2022-12-29T07:50:49;11.80;74.90
10133;DHT22;5106;50.926;7.080;2022-12-29T07:53:15;11.80;75.40
10133;DHT22;5106;50.926;7.080;2022-12-29T07:55:41;11.80;75.10
10133;DHT22;5106;50.926;7.080;2022-12-29T07:58:06;11.80;74.90
10133;DHT22;5106;50.926;7.080;2022-12-29T08:00:32;11.80;74.90
10133;DHT22;5106;50.926;7.080;2022-12-29T08:02:58;11.80;75.30
10133;DHT22;5106;50.926;7.080;2022-12-29T08:05:24;11.80;75.20
10133;DHT22;5106;50.926;7.080;2022-12-29T08:07:50;11.80;75.40
10133;DHT22;5106;50.926;7.080;2022-12-29T08:10:16;11.80;75.30
10133;DHT22;5106;50.926;7.080;2022-12-29T08:12:43;11.80;75.20
10133;DHT22;5106;50.926;7.080;2022-12-29T08:15:11;11.80;75.50
10133;DHT22;5106;50.926;7.080;2022-12-29T08:17:37;11.80;75.20
10133;DHT22;5106;50.926;7.080;2022-12-29T08:20:03;11.80;75.00
10133;DHT22;5106;50.926;7.080;2022-12-29T08:22:29;11.80;75.40
10133;DHT22;5106;50.926;7.080;2022-12-29T08:24:54;11.80;75.00
10133;DHT22;5106;50.926;7.080;2022-12-29T08:27:20;11.80;75.40
10133;DHT22;5106;50.926;7.080;2022-12-29T08:29:46;11.80;75.80
10133;DHT22;5106;50.926;7.080;2022-12-29T08:32:11;11.80;75.20
10133;DHT22;5106;50.926;7.080;2022-12-29T08:34:37;11.80;74.70
10133;DHT22;5106;50.926;7.080;2022-12-29T08:37:03;11.80;74.70
10133;DHT22;5106;50.926;7.080;2022-12-29T08:39:28;11.80;74.90
10133;DHT22;5106;50.926;7.080;2022-12-29T08:41:54;11.80;75.40
10133;DHT22;5106;50.926;7.080;2022-12-29T08:44:20;11.70;75.10
10133;DHT22;5106;50.926;7.080;2022-12-29T08:46:46;11.70;75.70
10133;DHT22;5106;50.926;7.080;2022-12-29T08:49:12;11.60;75.10
10133;DHT22;5106;50.926;7.080;2022-12-29T08:51:38;11.50;76.20
10133;DHT22;5106;50.926;7.080;2022-12-29T08:54:04;11.40;76.50
10133;DHT22;5106;50.926;7.080;2022-12-29T08:56:30;11.40;76.90
10133;DHT22;5106;50.926;7.080;2022-12-29T08:58:55;11.30;77.30
10133;DHT22;5106;50.926;7.080;2022-12-29T09:01:21;11.20;77.30
10133;DHT22;5106;50.926;7.080;2022-12-29T09:03:47;11.20;77.50
10133;DHT22;5106;50.926;7.080;2022-12-29T09:06:13;11.20;77.80
10133;DHT22;5106;50.926;7.080;2022-12-29T09:08:39;11.20;77.90
10133;DHT22;5106;50.926;7.080;2022-12-29T09:13:37;11.20;78.00
10133;DHT22;5106;50.926;7.080;2022-12-29T09:16:03;11.20;78.10
10133;DHT22;5106;50.926;7.080;2022-12-29T09:18:30;11.20;77.40
10133;DHT22;5106;50.926;7.080;2022-12-29T09:21:00;11.30;75.60
10133;DHT22;5106;50.926;7.080;2022-12-29T09:23:27;11.40;74.60
10133;DHT22;5106;50.926;7.080;2022-12-29T09:25:53;11.50;74.20
10133;DHT22;5106;50.926;7.080;2022-12-29T09:28:19;11.50;74.30
10133;DHT22;5106;50.926;7.080;2022-12-29T09:30:45;11.60;73.40
10133;DHT22;5106;50.926;7.080;2022-12-29T09:33:11;11.60;73.60
10133;DHT22;5106;50.926;7.080;2022-12-29T09:35:37;11.60;73.60
10133;DHT22;5106;50.926;7.080;2022-12-29T09:38:02;11.70;73.80
10133;DHT22;5106;50.926;7.080;2022-12-29T09:40:30;11.70;73.10
10133;DHT22;5106;50.926;7.080;2022-12-29T09:43:12;11.70;73.80
10133;DHT22;5106;50.926;7.080;2022-12-29T09:48:37;11.80;72.20
10133;DHT22;5106;50.926;7.080;2022-12-29T09:51:09;11.90;72.40
10133;DHT22;5106;50.926;7.080;2022-12-29T09:53:39;11.90;71.70
10133;DHT22;5106;50.926;7.080;2022-12-29T09:56:13;11.90;71.70
10133;DHT22;5106;50.926;7.080;2022-12-29T10:01:32;12.00;71.40
10133;DHT22;5106;50.926;7.080;2022-12-29T10:03:59;12.00;70.90
10133;DHT22;5106;50.926;7.080;2022-12-29T10:06:57;12.00;70.50
10133;DHT22;5106;50.926;7.080;2022-12-29T10:14:51;12.20;70.70
10133;DHT22;5106;50.926;7.080;2022-12-29T10:19:55;12.30;70.80
10133;DHT22;5106;50.926;7.080;2022-12-29T10:25:06;12.20;69.50
10133;DHT22;5106;50.926;7.080;2022-12-29T10:27:35;12.20;69.10
10133;DHT22;5106;50.926;7.080;2022-12-29T10:30:02;12.30;69.80
10133;DHT22;5106;50.926;7.080;2022-12-29T10:35:14;12.40;68.80
10133;DHT22;5106;50.926;7.080;2022-12-29T10:38:01;12.40;69.50
10133;DHT22;5106;50.926;7.080;2022-12-29T10:43:22;12.40;69.80
10133;DHT22;5106;50.926;7.080;2022-12-29T10:45:49;12.50;68.70
10133;DHT22;5106;50.926;7.080;2022-12-29T10:48:35;12.50;68.50
10133;DHT22;5106;50.926;7.080;2022-12-29T10:51:04;12.50;68.70
10133;DHT22;5106;50.926;7.080;2022-12-29T10:53:40;12.50;69.80
10133;DHT22;5106;50.926;7.080;2022-12-29T10:56:34;12.50;69.60
10133;DHT22;5106;50.926;7.080;2022-12-29T10:59:19;12.50;69.90
10133;DHT22;5106;50.926;7.080;2022-12-29T11:01:56;12.50;70.10
10133;DHT22;5106;50.926;7.080;2022-12-29T11:07:08;12.50;68.60
10133;DHT22;5106;50.926;7.080;2022-12-29T11:09:36;12.50;68.50
10133;DHT22;5106;50.926;7.080;2022-12-29T11:12:22;12.50;69.10
10133;DHT22;5106;50.926;7.080;2022-12-29T11:17:48;12.60;68.40
10133;DHT22;5106;50.926;7.080;2022-12-29T11:22:54;12.60;69.80
10133;DHT22;5106;50.926;7.080;2022-12-29T11:25:20;12.60;68.90
10133;DHT22;5106;50.926;7.080;2022-12-29T11:28:15;12.60;69.30
10133;DHT22;5106;50.926;7.080;2022-12-29T11:30:41;12.60;67.90
10133;DHT22;5106;50.926;7.080;2022-12-29T11:33:08;12.60;68.30
10133;DHT22;5106;50.926;7.080;2022-12-29T11:35:43;12.60;68.20
10133;DHT22;5106;50.926;7.080;2022-12-29T11:38:19;12.60;68.30
10133;DHT22;5106;50.926;7.080;2022-12-29T11:40:45;12.70;68.20
10133;DHT22;5106;50.926;7.080;2022-12-29T11:43:23;12.70;68.20
10133;DHT22;5106;50.926;7.080;2022-12-29T11:45:52;12.70;67.80
10133;DHT22;5106;50.926;7.080;2022-12-29T11:48:20;12.70;68.20
10133;DHT22;5106;50.926;7.080;2022-12-29T11:50:53;12.60;68.20
10133;DHT22;5106;50.926;7.080;2022-12-29T11:53:24;12.60;67.90
10133;DHT22;5106;50.926;7.080;2022-12-29T11:56:00;12.60;68.40
10133;DHT22;5106;50.926;7.080;2022-12-29T11:58:32;12.60;68.70
10133;DHT22;5106;50.926;7.080;2022-12-29T12:03:45;12.50;68.80
10133;DHT22;5106;50.926;7.080;2022-12-29T12:06:16;12.50;68.80
10133;DHT22;5106;50.926;7.080;2022-12-29T12:08:56;12.50;69.00
10133;DHT22;5106;50.926;7.080;2022-12-29T12:11:34;12.50;69.10
10133;DHT22;5106;50.926;7.080;2022-12-29T12:14:32;12.40;69.40
10133;DHT22;5106;50.926;7.080;2022-12-29T12:17:04;12.40;69.20
10133;DHT22;5106;50.926;7.080;2022-12-29T12:19:46;12.40;69.60
10133;DHT22;5106;50.926;7.080;2022-12-29T12:22:33;12.40;69.40
10133;DHT22;5106;50.926;7.080;2022-12-29T12:27:51;12.40;68.90
10133;DHT22;5106;50.926;7.080;2022-12-29T12:33:02;12.40;68.70
10133;DHT22;5106;50.926;7.080;2022-12-29T12:35:42;12.40;69.00
10133;DHT22;5106;50.926;7.080;2022-12-29T12:40:44;12.40;69.00
10133;DHT22;5106;50.926;7.080;2022-12-29T12:54:34;12.30;68.80
10133;DHT22;5106;50.926;7.080;2022-12-29T12:59:48;12.40;69.20
10133;DHT22;5106;50.926;7.080;2022-12-29T13:10:54;12.30;69.60
10133;DHT22;5106;50.926;7.080;2022-12-29T13:18:40;12.30;69.10
10133;DHT22;5106;50.926;7.080;2022-12-29T13:21:22;12.30;69.30
10133;DHT22;5106;50.926;7.080;2022-12-29T13:24:00;12.30;69.50
10133;DHT22;5106;50.926;7.080;2022-12-29T13:26:32;12.30;69.50
10133;DHT22;5106;50.926;7.080;2022-12-29T13:29:03;12.20;70.00
10133;DHT22;5106;50.926;7.080;2022-12-29T13:34:45;12.10;70.40
10133;DHT22;5106;50.926;7.080;2022-12-29T13:37:16;12.00;70.60
10133;DHT22;5106;50.926;7.080;2022-12-29T13:39:49;12.00;70.60
10133;DHT22;5106;50.926;7.080;2022-12-29T13:42:18;12.00;70.60
10133;DHT22;5106;50.926;7.080;2022-12-29T13:45:06;11.90;70.60
10133;DHT22;5106;50.926;7.080;2022-12-29T13:47:55;11.90;71.70
10133;DHT22;5106;50.926;7.080;2022-12-29T13:50:26;11.80;72.10
10133;DHT22;5106;50.926;7.080;2022-12-29T13:56:17;11.70;71.90
10133;DHT22;5106;50.926;7.080;2022-12-29T14:01:43;11.70;71.00
10133;DHT22;5106;50.926;7.080;2022-12-29T14:04:14;11.70;71.40
10133;DHT22;5106;50.926;7.080;2022-12-29T14:06:40;11.60;70.90
10133;DHT22;5106;50.926;7.080;2022-12-29T14:09:47;11.70;70.60
10133;DHT22;5106;50.926;7.080;2022-12-29T14:15:20;11.70;71.30
10133;DHT22;5106;50.926;7.080;2022-12-29T14:18:10;11.60;72.10
10133;DHT22;5106;50.926;7.080;2022-12-29T14:20:37;11.60;71.50
10133;DHT22;5106;50.926;7.080;2022-12-29T14:26:15;11.50;71.80
10133;DHT22;5106;50.926;7.080;2022-12-29T14:28:50;11.50;72.40
10133;DHT22;5106;50.926;7.080;2022-12-29T14:36:37;10.60;79.00
10133;DHT22;5106;50.926;7.080;2022-12-29T14:39:18;10.40;79.10
10133;DHT22;5106;50.926;7.080;2022-12-29T14:42:20;10.20;79.60
10133;DHT22;5106;50.926;7.080;2022-12-29T14:45:02;10.10;79.50
10133;DHT22;5106;50.926;7.080;2022-12-29T14:50:18;10.20;80.00
10133;DHT22;5106;50.926;7.080;2022-12-29T14:57:57;10.30;79.60
10133;DHT22;5106;50.926;7.080;2022-12-29T15:00:32;10.30;78.70
10133;DHT22;5106;50.926;7.080;2022-12-29T15:05:53;10.40;77.70
10133;DHT22;5106;50.926;7.080;2022-12-29T15:08:22;10.40;77.30
10133;DHT22;5106;50.926;7.080;2022-12-29T15:12:04;10.40;77.30
10133;DHT22;5106;50.926;7.080;2022-12-29T15:14:34;10.40;77.50
10133;DHT22;5106;50.926;7.080;2022-12-29T15:17:01;10.40;76.80
10133;DHT22;5106;50.926;7.080;2022-12-29T15:19:27;10.40;77.00
10133;DHT22;5106;50.926;7.080;2022-12-29T15:21:54;10.40;76.20
10133;DHT22;5106;50.926;7.080;2022-12-29T15:24:20;10.40;76.40
10133;DHT22;5106;50.926;7.080;2022-12-29T15:26:49;10.40;76.90
10133;DHT22;5106;50.926;7.080;2022-12-29T15:32:00;10.20;77.50
10133;DHT22;5106;50.926;7.080;2022-12-29T15:34:29;10.10;78.10
10133;DHT22;5106;50.926;7.080;2022-12-29T15:36:55;10.00;77.90
10133;DHT22;5106;50.926;7.080;2022-12-29T15:39:28;10.00;77.50
10133;DHT22;5106;50.926;7.080;2022-12-29T15:42:03;10.00;77.90
10133;DHT22;5106;50.926;7.080;2022-12-29T15:44:40;9.90;78.00
10133;DHT22;5106;50.926;7.080;2022-12-29T15:47:18;9.80;78.00
10133;DHT22;5106;50.926;7.080;2022-12-29T15:49:48;9.80;77.90
10133;DHT22;5106;50.926;7.080;2022-12-29T15:52:21;9.80;77.90
10133;DHT22;5106;50.926;7.080;2022-12-29T15:54:52;9.80;78.10
10133;DHT22;5106;50.926;7.080;2022-12-29T15:57:30;9.80;78.10
10133;DHT22;5106;50.926;7.080;2022-12-29T15:59:57;9.80;78.10
10133;DHT22;5106;50.926;7.080;2022-12-29T16:02:24;9.70;78.30
10133;DHT22;5106;50.926;7.080;2022-12-29T16:04:50;9.70;77.70
10133;DHT22;5106;50.926;7.080;2022-12-29T16:07:32;9.70;77.00
10133;DHT22;5106;50.926;7.080;2022-12-29T16:10:01;9.70;76.80
10133;DHT22;5106;50.926;7.080;2022-12-29T16:12:32;9.80;76.30
10133;DHT22;5106;50.926;7.080;2022-12-29T16:15:00;9.80;76.40
10133;DHT22;5106;50.926;7.080;2022-12-29T16:17:29;9.70;76.80
10133;DHT22;5106;50.926;7.080;2022-12-29T16:20:25;9.70;76.30
10133;DHT22;5106;50.926;7.080;2022-12-29T16:22:58;9.70;76.40
10133;DHT22;5106;50.926;7.080;2022-12-29T16:25:28;9.60;76.60
10133;DHT22;5106;50.926;7.080;2022-12-29T16:27:59;9.50;76.50
10133;DHT22;5106;50.926;7.080;2022-12-29T16:30:28;9.50;76.20
10133;DHT22;5106;50.926;7.080;2022-12-29T16:32:56;9.50;76.30
10133;DHT22;5106;50.926;7.080;2022-12-29T16:35:38;9.50;76.40
10133;DHT22;5106;50.926;7.080;2022-12-29T16:38:16;9.50;76.90
10133;DHT22;5106;50.926;7.080;2022-12-29T16:41:02;9.40;77.00
10133;DHT22;5106;50.926;7.080;2022-12-29T16:43:28;9.30;77.60
10133;DHT22;5106;50.926;7.080;2022-12-29T16:53:38;9.00;79.40
10133;DHT22;5106;50.926;7.080;2022-12-29T16:56:16;9.00;79.60
10133;DHT22;5106;50.926;7.080;2022-12-29T16:58:47;9.00;79.40
10133;DHT22;5106;50.926;7.080;2022-12-29T17:01:13;8.90;79.40
10133;DHT22;5106;50.926;7.080;2022-12-29T17:03:48;8.90;79.40
10133;DHT22;5106;50.926;7.080;2022-12-29T17:06:20;8.90;79.50
10133;DHT22;5106;50.926;7.080;2022-12-29T17:08:47;8.90;79.60
10133;DHT22;5106;50.926;7.080;2022-12-29T17:11:30;8.90;79.40
10133;DHT22;5106;50.926;7.080;2022-12-29T17:16:56;8.80;79.60
10133;DHT22;5106;50.926;7.080;2022-12-29T17:19:35;8.80;80.10
10133;DHT22;5106;50.926;7.080;2022-12-29T17:22:02;8.80;80.20
10133;DHT22;5106;50.926;7.080;2022-12-29T17:24:28;8.80;79.70
10133;DHT22;5106;50.926;7.080;2022-12-29T17:26:58;8.90;79.60
10133;DHT22;5106;50.926;7.080;2022-12-29T17:29:37;8.90;79.70
10133;DHT22;5106;50.926;7.080;2022-12-29T17:32:06;8.90;79.70
10133;DHT22;5106;50.926;7.080;2022-12-29T17:34:34;8.90;79.80
10133;DHT22;5106;50.926;7.080;2022-12-29T17:37:00;8.90;79.80
10133;DHT22;5106;50.926;7.080;2022-12-29T17:39:25;8.90;80.10
10133;DHT22;5106;50.926;7.080;2022-12-29T17:41:51;8.90;80.20
10133;DHT22;5106;50.926;7.080;2022-12-29T17:44:18;8.80;80.30
10133;DHT22;5106;50.926;7.080;2022-12-29T17:46:46;8.80;80.50
10133;DHT22;5106;50.926;7.080;2022-12-29T17:49:14;8.80;80.50
10133;DHT22;5106;50.926;7.080;2022-12-29T17:51:42;8.80;80.50
10133;DHT22;5106;50.926;7.080;2022-12-29T17:54:17;8.80;80.40
10133;DHT22;5106;50.926;7.080;2022-12-29T17:56:44;8.70;80.40
10133;DHT22;5106;50.926;7.080;2022-12-29T17:59:13;8.70;80.40
10133;DHT22;5106;50.926;7.080;2022-12-29T18:01:39;8.70;80.50
10133;DHT22;5106;50.926;7.080;2022-12-29T18:04:05;8.60;80.60
10133;DHT22;5106;50.926;7.080;2022-12-29T18:06:40;8.50;80.60
10133;DHT22;5106;50.926;7.080;2022-12-29T18:09:06;8.50;80.70
10133;DHT22;5106;50.926;7.080;2022-12-29T18:11:34;8.40;80.80
10133;DHT22;5106;50.926;7.080;2022-12-29T18:14:00;8.40;80.80
10133;DHT22;5106;50.926;7.080;2022-12-29T18:16:26;8.40;81.10
10133;DHT22;5106;50.926;7.080;2022-12-29T18:18:52;8.40;81.20
10133;DHT22;5106;50.926;7.080;2022-12-29T18:21:21;8.40;81.10
10133;DHT22;5106;50.926;7.080;2022-12-29T18:23:47;8.40;81.20
10133;DHT22;5106;50.926;7.080;2022-12-29T18:26:16;8.40;81.00
10133;DHT22;5106;50.926;7.080;2022-12-29T18:28:43;8.40;81.00
10133;DHT22;5106;50.926;7.080;2022-12-29T18:33:44;8.50;80.60
10133;DHT22;5106;50.926;7.080;2022-12-29T18:36:11;8.60;80.60
10133;DHT22;5106;50.926;7.080;2022-12-29T18:38:37;8.60;80.50
10133;DHT22;5106;50.926;7.080;2022-12-29T18:41:02;8.60;80.60
10133;DHT22;5106;50.926;7.080;2022-12-29T18:43:28;8.60;80.60
10133;DHT22;5106;50.926;7.080;2022-12-29T18:45:54;8.70;79.80